sensor_id;sensor_type;location;lat;lon;timestamp;temperature;humidity
67598;DHT22;62026;39.230;9.122;2022-10-31T00:00:14;20.00;60.10
67598;DHT22;62026;39.230;9.122;2022-10-31T00:02:41;20.00;60.10
67598;DHT22;62026;39.230;9.122;2022-10-31T00:05:08;20.00;60.20
67598;DHT22;62026;39.230;9.122;2022-10-31T00:07:34;20.00;60.30
67598;DHT22;62026;39.230;9.122;2022-10-31T00:10:00;20.00;60.30
67598;DHT22;62026;39.230;9.122;2022-10-31T00:12:26;19.90;60.30
67598;DHT22;62026;39.230;9.122;2022-10-31T00:14:52;19.90;60.40
67598;DHT22;62026;39.230;9.122;2022-10-31T00:17:18;19.90;60.40
67598;DHT22;62026;39.230;9.122;2022-10-31T00:19:44;19.90;60.50
67598;DHT22;62026;39.230;9.122;2022-10-31T00:22:10;19.90;60.70
67598;DHT22;62026;39.230;9.122;2022-10-31T00:24:36;19.90;60.80
67598;DHT22;62026;39.230;9.122;2022-10-31T00:27:02;19.90;60.90
67598;DHT22;62026;39.230;9.122;2022-10-31T00:29:28;19.90;61.00
67598;DHT22;62026;39.230;9.122;2022-10-31T00:31:54;19.90;61.10
67598;DHT22;62026;39.230;9.122;2022-10-31T00:34:20;19.90;61.20
67598;DHT22;62026;39.230;9.122;2022-10-31T00:36:46;19.90;61.30
67598;DHT22;62026;39.230;9.122;2022-10-31T00:39:12;19.80;61.30
67598;DHT22;62026;39.230;9.122;2022-10-31T00:41:39;19.90;61.40
67598;DHT22;62026;39.230;9.122;2022-10-31T00:44:11;19.80;61.50
67598;DHT22;62026;39.230;9.122;2022-10-31T00:46:37;19.80;61.60
67598;DHT22;62026;39.230;9.122;2022-10-31T00:49:03;19.80;61.60
67598;DHT22;62026;39.230;9.122;2022-10-31T00:51:29;19.80;61.60
67598;DHT22;62026;39.230;9.122;2022-10-31T00:53:55;19.80;61.50
67598;DHT22;62026;39.230;9.122;2022-10-31T00:56:21;19.80;61.70
67598;DHT22;62026;39.230;9.122;2022-10-31T00:58:47;19.80;61.60
67598;DHT22;62026;39.230;9.122;2022-10-31T01:01:13;19.80;61.70
67598;DHT22;62026;39.230;9.122;2022-10-31T01:03:39;19.80;61.70
67598;DHT22;62026;39.230;9.122;2022-10-31T01:06:11;19.80;61.70
67598;DHT22;62026;39.230;9.122;2022-10-31T01:08:38;19.70;61.70
67598;DHT22;62026;39.230;9.122;2022-10-31T01:11:10;19.70;61.80
67598;DHT22;62026;39.230;9.122;2022-10-31T01:13:44;19.70;61.80
67598;DHT22;62026;39.230;9.122;2022-10-31T01:16:15;19.70;61.80
67598;DHT22;62026;39.230;9.122;2022-10-31T01:18:43;19.70;61.90
67598;DHT22;62026;39.230;9.122;2022-10-31T01:21:12;19.70;61.90
67598;DHT22;62026;39.230;9.122;2022-10-31T01:23:40;19.70;62.00
67598;DHT22;62026;39.230;9.122;2022-10-31T01:26:20;19.70;62.00
67598;DHT22;62026;39.230;9.122;2022-10-31T01:28:54;19.60;62.00
67598;DHT22;62026;39.230;9.122;2022-10-31T01:31:32;19.60;62.10
67598;DHT22;62026;39.230;9.122;2022-10-31T01:34:00;19.60;62.10
67598;DHT22;62026;39.230;9.122;2022-10-31T01:36:35;19.60;62.00
67598;DHT22;62026;39.230;9.122;2022-10-31T01:39:13;19.60;62.00
67598;DHT22;62026;39.230;9.122;2022-10-31T01:41:46;19.60;62.10
67598;DHT22;62026;39.230;9.122;2022-10-31T01:49:24;19.60;62.20
67598;DHT22;62026;39.230;9.122;2022-10-31T01:51:56;19.50;62.20
67598;DHT22;62026;39.230;9.122;2022-10-31T01:54:32;19.50;62.20
67598;DHT22;62026;39.230;9.122;2022-10-31T01:57:04;19.50;62.20
67598;DHT22;62026;39.230;9.122;2022-10-31T01:59:36;19.50;62.30
67598;DHT22;62026;39.230;9.122;2022-10-31T02:02:07;19.50;62.30
67598;DHT22;62026;39.230;9.122;2022-10-31T02:04:34;19.50;62.40
67598;DHT22;62026;39.230;9.122;2022-10-31T02:07:18;19.50;62.50
67598;DHT22;62026;39.230;9.122;2022-10-31T02:09:53;19.50;62.50
67598;DHT22;62026;39.230;9.122;2022-10-31T02:12:22;19.40;62.60
67598;DHT22;62026;39.230;9.122;2022-10-31T02:14:48;19.40;62.80
67598;DHT22;62026;39.230;9.122;2022-10-31T02:17:14;19.40;62.80
67598;DHT22;62026;39.230;9.122;2022-10-31T02:23:00;19.40;62.80
67598;DHT22;62026;39.230;9.122;2022-10-31T02:31:46;19.40;62.80
67598;DHT22;62026;39.230;9.122;2022-10-31T02:37:55;19.30;63.00
67598;DHT22;62026;39.230;9.122;2022-10-31T02:40:59;19.30;63.00
67598;DHT22;62026;39.230;9.122;2022-10-31T02:46:48;19.30;63.00
67598;DHT22;62026;39.230;9.122;2022-10-31T02:49:34;19.30;63.00
67598;DHT22;62026;39.230;9.122;2022-10-31T02:52:32;19.30;62.90
67598;DHT22;62026;39.230;9.122;2022-10-31T02:57:48;19.30;62.80
67598;DHT22;62026;39.230;9.122;2022-10-31T03:00:19;19.30;62.50
67598;DHT22;62026;39.230;9.122;2022-10-31T03:03:22;19.30;62.30
67598;DHT22;62026;39.230;9.122;2022-10-31T03:06:19;19.30;62.20
67598;DHT22;62026;39.230;9.122;2022-10-31T03:15:24;19.30;62.40
67598;DHT22;62026;39.230;9.122;2022-10-31T03:18:13;19.20;62.50
67598;DHT22;62026;39.230;9.122;2022-10-31T03:21:04;19.20;62.50
67598;DHT22;62026;39.230;9.122;2022-10-31T03:23:45;19.20;62.50
67598;DHT22;62026;39.230;9.122;2022-10-31T03:26:20;19.10;62.50
67598;DHT22;62026;39.230;9.122;2022-10-31T03:29:01;19.10;62.30
67598;DHT22;62026;39.230;9.122;2022-10-31T03:31:33;19.10;62.10
67598;DHT22;62026;39.230;9.122;2022-10-31T03:34:22;19.10;61.80
67598;DHT22;62026;39.230;9.122;2022-10-31T03:36:51;19.20;61.90
67598;DHT22;62026;39.230;9.122;2022-10-31T03:39:21;19.10;61.70
67598;DHT22;62026;39.230;9.122;2022-10-31T03:42:09;19.10;61.90
67598;DHT22;62026;39.230;9.122;2022-10-31T03:44:42;19.10;62.10
67598;DHT22;62026;39.230;9.122;2022-10-31T03:47:13;19.10;62.00
67598;DHT22;62026;39.230;9.122;2022-10-31T03:49:39;19.10;62.00
67598;DHT22;62026;39.230;9.122;2022-10-31T03:55:05;19.10;62.50
67598;DHT22;62026;39.230;9.122;2022-10-31T03:57:49;19.10;62.70
67598;DHT22;62026;39.230;9.122;2022-10-31T04:00:22;19.00;62.70
67598;DHT22;62026;39.230;9.122;2022-10-31T04:05:29;19.00;62.90
67598;DHT22;62026;39.230;9.122;2022-10-31T04:08:01;19.00;62.90
67598;DHT22;62026;39.230;9.122;2022-10-31T04:10:32;19.00;62.90
67598;DHT22;62026;39.230;9.122;2022-10-31T04:13:04;18.90;62.90
67598;DHT22;62026;39.230;9.122;2022-10-31T04:15:42;19.00;62.90
67598;DHT22;62026;39.230;9.122;2022-10-31T04:18:10;18.90;62.90
67598;DHT22;62026;39.230;9.122;2022-10-31T04:20:38;18.90;62.90
67598;DHT22;62026;39.230;9.122;2022-10-31T04:23:20;18.90;62.90
67598;DHT22;62026;39.230;9.122;2022-10-31T04:25:50;18.90;62.80
67598;DHT22;62026;39.230;9.122;2022-10-31T04:28:17;18.90;62.80
67598;DHT22;62026;39.230;9.122;2022-10-31T04:30:44;18.90;62.70
67598;DHT22;62026;39.230;9.122;2022-10-31T04:33:10;18.90;62.70
67598;DHT22;62026;39.230;9.122;2022-10-31T04:35:37;18.90;62.60
67598;DHT22;62026;39.230;9.122;2022-10-31T04:38:03;18.80;62.70
67598;DHT22;62026;39.230;9.122;2022-10-31T04:40:29;18.80;62.70
67598;DHT22;62026;39.230;9.122;2022-10-31T04:43:14;18.80;62.80
67598;DHT22;62026;39.230;9.122;2022-10-31T04:45:42;18.80;62.80
67598;DHT22;62026;39.230;9.122;2022-10-31T04:48:09;18.70;62.80
67598;DHT22;62026;39.230;9.122;2022-10-31T04:50:36;18.70;62.60
67598;DHT22;62026;39.230;9.122;2022-10-31T04:53:02;18.70;62.40
67598;DHT22;62026;39.230;9.122;2022-10-31T04:55:37;18.70;61.90
67598;DHT22;62026;39.230;9.122;2022-10-31T04:58:33;18.70;61.40
67598;DHT22;62026;39.230;9.122;2022-10-31T05:00:59;18.60;60.70
67598;DHT22;62026;39.230;9.122;2022-10-31T05:03:25;18.60;60.10
67598;DHT22;62026;39.230;9.122;2022-10-31T05:05:51;18.50;59.70
67598;DHT22;62026;39.230;9.122;2022-10-31T05:08:17;18.50;59.10
67598;DHT22;62026;39.230;9.122;2022-10-31T05:10:45;18.50;58.70
67598;DHT22;62026;39.230;9.122;2022-10-31T05:13:11;18.40;58.40
67598;DHT22;62026;39.230;9.122;2022-10-31T05:16:12;18.40;58.30
67598;DHT22;62026;39.230;9.122;2022-10-31T05:18:50;18.30;58.10
67598;DHT22;62026;39.230;9.122;2022-10-31T05:21:19;18.30;58.10
67598;DHT22;62026;39.230;9.122;2022-10-31T05:23:50;18.30;58.10
67598;DHT22;62026;39.230;9.122;2022-10-31T05:26:17;18.20;57.90
67598;DHT22;62026;39.230;9.122;2022-10-31T05:28:44;18.20;57.70
67598;DHT22;62026;39.230;9.122;2022-10-31T05:31:10;18.20;57.70
67598;DHT22;62026;39.230;9.122;2022-10-31T05:33:36;18.20;57.80
67598;DHT22;62026;39.230;9.122;2022-10-31T05:36:21;18.10;57.60
67598;DHT22;62026;39.230;9.122;2022-10-31T05:38:58;18.10;57.80
67598;DHT22;62026;39.230;9.122;2022-10-31T05:41:28;18.20;57.70
67598;DHT22;62026;39.230;9.122;2022-10-31T05:44:03;18.10;57.80
67598;DHT22;62026;39.230;9.122;2022-10-31T05:46:32;18.10;57.80
67598;DHT22;62026;39.230;9.122;2022-10-31T05:49:21;18.00;58.00
67598;DHT22;62026;39.230;9.122;2022-10-31T05:51:56;18.00;58.00
67598;DHT22;62026;39.230;9.122;2022-10-31T05:54:31;18.00;58.10
67598;DHT22;62026;39.230;9.122;2022-10-31T05:56:57;18.00;58.10
67598;DHT22;62026;39.230;9.122;2022-10-31T05:59:24;18.00;58.20
67598;DHT22;62026;39.230;9.122;2022-10-31T06:01:50;18.00;58.10
67598;DHT22;62026;39.230;9.122;2022-10-31T06:04:34;18.00;58.20
67598;DHT22;62026;39.230;9.122;2022-10-31T06:07:02;18.00;58.20
67598;DHT22;62026;39.230;9.122;2022-10-31T06:09:29;18.00;58.10
67598;DHT22;62026;39.230;9.122;2022-10-31T06:11:55;18.00;58.00
67598;DHT22;62026;39.230;9.122;2022-10-31T06:14:24;18.10;58.00
67598;DHT22;62026;39.230;9.122;2022-10-31T06:16:54;18.10;57.90
67598;DHT22;62026;39.230;9.122;2022-10-31T06:19:40;18.10;58.00
67598;DHT22;62026;39.230;9.122;2022-10-31T06:22:07;18.20;58.10
67598;DHT22;62026;39.230;9.122;2022-10-31T06:24:33;18.30;58.10
67598;DHT22;62026;39.230;9.122;2022-10-31T06:27:06;18.30;57.90
67598;DHT22;62026;39.230;9.122;2022-10-31T06:29:32;18.40;57.90
67598;DHT22;62026;39.230;9.122;2022-10-31T06:32:10;18.50;57.80
67598;DHT22;62026;39.230;9.122;2022-10-31T06:34:41;18.60;57.50
67598;DHT22;62026;39.230;9.122;2022-10-31T06:37:10;18.60;57.30
67598;DHT22;62026;39.230;9.122;2022-10-31T06:39:40;18.70;57.00
67598;DHT22;62026;39.230;9.122;2022-10-31T06:42:08;18.70;56.80
67598;DHT22;62026;39.230;9.122;2022-10-31T06:44:35;18.80;56.60
67598;DHT22;62026;39.230;9.122;2022-10-31T06:47:39;18.90;56.30
67598;DHT22;62026;39.230;9.122;2022-10-31T06:50:08;19.00;56.10
67598;DHT22;62026;39.230;9.122;2022-10-31T06:52:34;19.00;56.00
67598;DHT22;62026;39.230;9.122;2022-10-31T06:55:03;19.10;55.70
67598;DHT22;62026;39.230;9.122;2022-10-31T06:57:30;19.20;55.70
67598;DHT22;62026;39.230;9.122;2022-10-31T06:59:56;19.20;55.70
67598;DHT22;62026;39.230;9.122;2022-10-31T07:02:40;19.30;55.60
67598;DHT22;62026;39.230;9.122;2022-10-31T07:05:06;19.30;55.50
67598;DHT22;62026;39.230;9.122;2022-10-31T07:07:32;19.50;55.30
67598;DHT22;62026;39.230;9.122;2022-10-31T07:09:59;19.60;55.30
67598;DHT22;62026;39.230;9.122;2022-10-31T07:12:41;19.70;54.90
67598;DHT22;62026;39.230;9.122;2022-10-31T07:15:08;19.80;54.90
67598;DHT22;62026;39.230;9.122;2022-10-31T07:17:35;19.90;55.30
67598;DHT22;62026;39.230;9.122;2022-10-31T07:20:01;20.20;54.50
67598;DHT22;62026;39.230;9.122;2022-10-31T07:22:37;20.20;54.90
67598;DHT22;62026;39.230;9.122;2022-10-31T07:25:06;20.40;54.40
67598;DHT22;62026;39.230;9.122;2022-10-31T07:28:11;20.50;53.90
67598;DHT22;62026;39.230;9.122;2022-10-31T07:30:38;20.70;53.90
67598;DHT22;62026;39.230;9.122;2022-10-31T07:33:05;20.80;53.60
67598;DHT22;62026;39.230;9.122;2022-10-31T07:35:52;20.90;53.40
67598;DHT22;62026;39.230;9.122;2022-10-31T07:38:22;21.00;53.00
67598;DHT22;62026;39.230;9.122;2022-10-31T07:40:52;21.10;52.80
67598;DHT22;62026;39.230;9.122;2022-10-31T07:43:19;21.20;52.70
67598;DHT22;62026;39.230;9.122;2022-10-31T07:46:17;21.20;52.70
67598;DHT22;62026;39.230;9.122;2022-10-31T07:48:46;21.40;52.30
67598;DHT22;62026;39.230;9.122;2022-10-31T07:51:30;21.60;52.10
67598;DHT22;62026;39.230;9.122;2022-10-31T07:54:15;21.70;51.90
67598;DHT22;62026;39.230;9.122;2022-10-31T07:56:41;21.70;51.50
67598;DHT22;62026;39.230;9.122;2022-10-31T07:59:08;22.00;51.00
67598;DHT22;62026;39.230;9.122;2022-10-31T08:01:34;22.20;50.90
67598;DHT22;62026;39.230;9.122;2022-10-31T08:04:20;22.20;50.80
67598;DHT22;62026;39.230;9.122;2022-10-31T08:07:05;22.30;50.40
67598;DHT22;62026;39.230;9.122;2022-10-31T08:09:34;22.30;50.40
67598;DHT22;62026;39.230;9.122;2022-10-31T08:12:06;22.40;50.30
67598;DHT22;62026;39.230;9.122;2022-10-31T08:14:34;22.50;50.10
67598;DHT22;62026;39.230;9.122;2022-10-31T08:17:00;22.60;50.10
67598;DHT22;62026;39.230;9.122;2022-10-31T08:19:34;22.80;49.70
67598;DHT22;62026;39.230;9.122;2022-10-31T08:22:00;23.10;49.40
67598;DHT22;62026;39.230;9.122;2022-10-31T08:24:26;23.30;48.90
67598;DHT22;62026;39.230;9.122;2022-10-31T08:26:54;23.40;48.70
67598;DHT22;62026;39.230;9.122;2022-10-31T08:29:20;23.50;48.70
67598;DHT22;62026;39.230;9.122;2022-10-31T08:31:46;23.50;48.70
67598;DHT22;62026;39.230;9.122;2022-10-31T08:34:31;23.70;48.50
67598;DHT22;62026;39.230;9.122;2022-10-31T08:37:16;23.60;48.90
67598;DHT22;62026;39.230;9.122;2022-10-31T08:39:46;23.80;48.50
67598;DHT22;62026;39.230;9.122;2022-10-31T08:42:13;24.00;48.30
67598;DHT22;62026;39.230;9.122;2022-10-31T08:44:39;23.90;48.40
67598;DHT22;62026;39.230;9.122;2022-10-31T08:47:05;23.90;48.50
67598;DHT22;62026;39.230;9.122;2022-10-31T08:49:33;23.90;48.70
67598;DHT22;62026;39.230;9.122;2022-10-31T08:51:59;24.30;48.20
67598;DHT22;62026;39.230;9.122;2022-10-31T08:54:30;24.40;47.90
67598;DHT22;62026;39.230;9.122;2022-10-31T08:57:17;24.50;47.90
67598;DHT22;62026;39.230;9.122;2022-10-31T08:59:45;24.60;47.80
67598;DHT22;62026;39.230;9.122;2022-10-31T09:02:11;24.70;47.60
67598;DHT22;62026;39.230;9.122;2022-10-31T09:04:37;24.60;47.80
67598;DHT22;62026;39.230;9.122;2022-10-31T09:07:04;24.60;47.90
67598;DHT22;62026;39.230;9.122;2022-10-31T09:09:30;24.70;48.10
67598;DHT22;62026;39.230;9.122;2022-10-31T09:11:56;25.20;48.40
67598;DHT22;62026;39.230;9.122;2022-10-31T09:14:22;25.40;48.20
67598;DHT22;62026;39.230;9.122;2022-10-31T09:17:17;25.60;48.10
67598;DHT22;62026;39.230;9.122;2022-10-31T09:20:04;25.80;47.70
67598;DHT22;62026;39.230;9.122;2022-10-31T09:22:33;25.90;47.50
67598;DHT22;62026;39.230;9.122;2022-10-31T09:24:59;25.80;47.70
67598;DHT22;62026;39.230;9.122;2022-10-31T09:27:26;25.60;47.70
67598;DHT22;62026;39.230;9.122;2022-10-31T09:29:55;25.50;47.90
67598;DHT22;62026;39.230;9.122;2022-10-31T09:32:21;25.70;48.40
67598;DHT22;62026;39.230;9.122;2022-10-31T09:34:47;25.40;49.80
67598;DHT22;62026;39.230;9.122;2022-10-31T09:37:19;25.20;50.70
67598;DHT22;62026;39.230;9.122;2022-10-31T09:39:45;25.40;50.40
67598;DHT22;62026;39.230;9.122;2022-10-31T09:52:13;24.60;52.40
67598;DHT22;62026;39.230;9.122;2022-10-31T09:54:51;24.50;52.90
67598;DHT22;62026;39.230;9.122;2022-10-31T09:57:29;24.80;52.30
67598;DHT22;62026;39.230;9.122;2022-10-31T09:59:59;24.60;52.40
67598;DHT22;62026;39.230;9.122;2022-10-31T10:03:11;24.50;53.10
67598;DHT22;62026;39.230;9.122;2022-10-31T10:05:56;24.30;53.80
67598;DHT22;62026;39.230;9.122;2022-10-31T10:08:35;24.50;53.70
67598;DHT22;62026;39.230;9.122;2022-10-31T10:25:24;23.90;53.40
67598;DHT22;62026;39.230;9.122;2022-10-31T10:30:58;23.90;52.40
67598;DHT22;62026;39.230;9.122;2022-10-31T10:33:46;23.70;53.70
67598;DHT22;62026;39.230;9.122;2022-10-31T10:36:22;23.50;53.90
67598;DHT22;62026;39.230;9.122;2022-10-31T10:38:55;23.60;54.10
67598;DHT22;62026;39.230;9.122;2022-10-31T10:41:31;23.50;54.60
67598;DHT22;62026;39.230;9.122;2022-10-31T10:43:58;23.50;54.70
67598;DHT22;62026;39.230;9.122;2022-10-31T10:46:55;23.50;54.90
67598;DHT22;62026;39.230;9.122;2022-10-31T10:49:50;23.60;54.10
67598;DHT22;62026;39.230;9.122;2022-10-31T10:57:59;23.60;53.80
67598;DHT22;62026;39.230;9.122;2022-10-31T11:00:34;23.50;53.50
67598;DHT22;62026;39.230;9.122;2022-10-31T11:03:04;23.40;53.40
67598;DHT22;62026;39.230;9.122;2022-10-31T11:05:50;23.40;54.20
67598;DHT22;62026;39.230;9.122;2022-10-31T11:08:34;23.50;54.30
67598;DHT22;62026;39.230;9.122;2022-10-31T11:14:03;23.40;52.40
67598;DHT22;62026;39.230;9.122;2022-10-31T11:16:40;23.30;54.00
67598;DHT22;62026;39.230;9.122;2022-10-31T11:21:37;23.40;55.80
67598;DHT22;62026;39.230;9.122;2022-10-31T11:24:12;23.40;56.00
67598;DHT22;62026;39.230;9.122;2022-10-31T11:26:42;23.40;55.70
67598;DHT22;62026;39.230;9.122;2022-10-31T11:29:20;23.40;55.20
67598;DHT22;62026;39.230;9.122;2022-10-31T11:31:52;23.40;56.20
67598;DHT22;62026;39.230;9.122;2022-10-31T11:34:29;23.40;56.00
67598;DHT22;62026;39.230;9.122;2022-10-31T11:39:54;23.20;57.30
67598;DHT22;62026;39.230;9.122;2022-10-31T11:42:34;23.20;56.90
67598;DHT22;62026;39.230;9.122;2022-10-31T11:45:31;23.20;57.60
67598;DHT22;62026;39.230;9.122;2022-10-31T11:48:01;23.30;57.00
67598;DHT22;62026;39.230;9.122;2022-10-31T11:50:36;23.20;56.90
67598;DHT22;62026;39.230;9.122;2022-10-31T11:53:16;23.20;56.90
67598;DHT22;62026;39.230;9.122;2022-10-31T11:55:46;23.30;56.20
67598;DHT22;62026;39.230;9.122;2022-10-31T11:58:24;23.10;54.60
67598;DHT22;62026;39.230;9.122;2022-10-31T12:00:54;23.10;54.90
67598;DHT22;62026;39.230;9.122;2022-10-31T12:06:28;23.00;56.00
67598;DHT22;62026;39.230;9.122;2022-10-31T12:09:00;23.00;55.60
67598;DHT22;62026;39.230;9.122;2022-10-31T12:17:14;23.10;54.70
67598;DHT22;62026;39.230;9.122;2022-10-31T12:29:31;23.00;53.30
67598;DHT22;62026;39.230;9.122;2022-10-31T12:49:42;23.10;51.90
67598;DHT22;62026;39.230;9.122;2022-10-31T12:52:48;23.10;50.70
67598;DHT22;62026;39.230;9.122;2022-10-31T12:55:55;23.10;50.50
67598;DHT22;62026;39.230;9.122;2022-10-31T13:01:33;22.90;50.50
67598;DHT22;62026;39.230;9.122;2022-10-31T13:04:35;22.90;49.10
67598;DHT22;62026;39.230;9.122;2022-10-31T13:07:38;22.90;49.20
67598;DHT22;62026;39.230;9.122;2022-10-31T13:10:59;23.00;49.50
67598;DHT22;62026;39.230;9.122;2022-10-31T13:13:21;23.00;49.60
67598;DHT22;62026;39.230;9.122;2022-10-31T13:16:12;22.90;50.00
67598;DHT22;62026;39.230;9.122;2022-10-31T13:19:03;22.90;48.60
67598;DHT22;62026;39.230;9.122;2022-10-31T13:27:28;22.80;50.80
67598;DHT22;62026;39.230;9.122;2022-10-31T13:30:15;22.90;51.10
67598;DHT22;62026;39.230;9.122;2022-10-31T13:41:53;22.90;50.70
67598;DHT22;62026;39.230;9.122;2022-10-31T13:44:35;22.90;50.90
67598;DHT22;62026;39.230;9.122;2022-10-31T13:50:06;22.80;54.20
67598;DHT22;62026;39.230;9.122;2022-10-31T13:52:45;22.80;54.30
67598;DHT22;62026;39.230;9.122;2022-10-31T13:55:47;22.90;54.20
67598;DHT22;62026;39.230;9.122;2022-10-31T13:58:42;22.90;51.70
67598;DHT22;62026;39.230;9.122;2022-10-31T14:01:22;22.90;51.60
67598;DHT22;62026;39.230;9.122;2022-10-31T14:09:23;22.90;50.20
67598;DHT22;62026;39.230;9.122;2022-10-31T14:11:53;22.80;50.80
67598;DHT22;62026;39.230;9.122;2022-10-31T14:14:22;22.80;50.70
67598;DHT22;62026;39.230;9.122;2022-10-31T14:16:57;22.90;51.10
67598;DHT22;62026;39.230;9.122;2022-10-31T14:19:24;22.90;52.40
67598;DHT22;62026;39.230;9.122;2022-10-31T14:21:51;22.90;53.30
67598;DHT22;62026;39.230;9.122;2022-10-31T14:26:57;22.80;49.90
67598;DHT22;62026;39.230;9.122;2022-10-31T14:29:32;22.80;51.10
67598;DHT22;62026;39.230;9.122;2022-10-31T14:51:40;22.60;53.90
67598;DHT22;62026;39.230;9.122;2022-10-31T14:54:35;22.60;53.80
67598;DHT22;62026;39.230;9.122;2022-10-31T14:57:07;22.60;54.00
67598;DHT22;62026;39.230;9.122;2022-10-31T14:59:46;22.50;54.20
67598;DHT22;62026;39.230;9.122;2022-10-31T15:02:24;22.50;54.40
67598;DHT22;62026;39.230;9.122;2022-10-31T15:04:56;22.50;53.80
67598;DHT22;62026;39.230;9.122;2022-10-31T15:07:27;22.40;53.40
67598;DHT22;62026;39.230;9.122;2022-10-31T15:09:58;22.40;55.10
67598;DHT22;62026;39.230;9.122;2022-10-31T15:12:31;22.50;55.50
67598;DHT22;62026;39.230;9.122;2022-10-31T15:15:13;22.40;53.30
67598;DHT22;62026;39.230;9.122;2022-10-31T15:17:45;22.40;51.70
67598;DHT22;62026;39.230;9.122;2022-10-31T15:20:25;22.40;53.90
67598;DHT22;62026;39.230;9.122;2022-10-31T15:22:56;22.40;54.20
67598;DHT22;62026;39.230;9.122;2022-10-31T15:25:25;22.40;54.70
67598;DHT22;62026;39.230;9.122;2022-10-31T15:27:55;22.50;55.20
67598;DHT22;62026;39.230;9.122;2022-10-31T15:30:26;22.50;55.00
67598;DHT22;62026;39.230;9.122;2022-10-31T15:32:54;22.50;54.90
67598;DHT22;62026;39.230;9.122;2022-10-31T15:35:22;22.30;55.70
67598;DHT22;62026;39.230;9.122;2022-10-31T15:37:52;22.40;55.80
67598;DHT22;62026;39.230;9.122;2022-10-31T15:40:21;22.40;56.10
67598;DHT22;62026;39.230;9.122;2022-10-31T15:42:56;22.40;56.90
67598;DHT22;62026;39.230;9.122;2022-10-31T15:45:34;22.40;56.90
67598;DHT22;62026;39.230;9.122;2022-10-31T15:48:03;22.30;57.40
67598;DHT22;62026;39.230;9.122;2022-10-31T15:50:47;22.30;57.60
67598;DHT22;62026;39.230;9.122;2022-10-31T15:53:25;22.30;57.80
67598;DHT22;62026;39.230;9.122;2022-10-31T15:56:08;22.30;58.10
67598;DHT22;62026;39.230;9.122;2022-10-31T15:58:47;22.30;58.20
67598;DHT22;62026;39.230;9.122;2022-10-31T16:01:25;22.20;58.60
67598;DHT22;62026;39.230;9.122;2022-10-31T16:04:00;22.20;58.80
67598;DHT22;62026;39.230;9.122;2022-10-31T16:06:40;22.20;59.30
67598;DHT22;62026;39.230;9.122;2022-10-31T16:09:23;22.20;59.80
67598;DHT22;62026;39.230;9.122;2022-10-31T16:11:50;22.10;60.60
67598;DHT22;62026;39.230;9.122;2022-10-31T16:14:25;22.10;60.70
67598;DHT22;62026;39.230;9.122;2022-10-31T16:16:56;22.10;61.30
67598;DHT22;62026;39.230;9.122;2022-10-31T16:19:30;22.20;61.00
67598;DHT22;62026;39.230;9.122;2022-10-31T16:22:06;22.10;61.10
67598;DHT22;62026;39.230;9.122;2022-10-31T16:24:45;22.10;61.20
67598;DHT22;62026;39.230;9.122;2022-10-31T16:27:25;22.10;61.50
67598;DHT22;62026;39.230;9.122;2022-10-31T16:29:56;22.20;61.60
67598;DHT22;62026;39.230;9.122;2022-10-31T16:38:04;22.10;62.20
67598;DHT22;62026;39.230;9.122;2022-10-31T16:40:31;22.00;62.40
67598;DHT22;62026;39.230;9.122;2022-10-31T16:42:59;22.00;62.80
67598;DHT22;62026;39.230;9.122;2022-10-31T16:45:29;22.00;62.80
67598;DHT22;62026;39.230;9.122;2022-10-31T16:48:09;22.00;63.10
67598;DHT22;62026;39.230;9.122;2022-10-31T16:50:38;21.80;63.50
67598;DHT22;62026;39.230;9.122;2022-10-31T16:53:04;21.80;63.50
67598;DHT22;62026;39.230;9.122;2022-10-31T16:55:31;21.90;63.40
67598;DHT22;62026;39.230;9.122;2022-10-31T16:58:01;22.00;63.00
67598;DHT22;62026;39.230;9.122;2022-10-31T17:00:28;21.90;63.20
67598;DHT22;62026;39.230;9.122;2022-10-31T17:02:55;21.90;63.00
67598;DHT22;62026;39.230;9.122;2022-10-31T17:05:23;21.80;63.10
67598;DHT22;62026;39.230;9.122;2022-10-31T17:07:56;21.80;62.90
67598;DHT22;62026;39.230;9.122;2022-10-31T17:10:23;21.80;62.80
67598;DHT22;62026;39.230;9.122;2022-10-31T17:12:50;21.70;62.90
67598;DHT22;62026;39.230;9.122;2022-10-31T17:15:22;21.70;63.10
67598;DHT22;62026;39.230;9.122;2022-10-31T17:17:49;21.80;63.00
67598;DHT22;62026;39.230;9.122;2022-10-31T17:20:23;21.60;63.60
67598;DHT22;62026;39.230;9.122;2022-10-31T17:22:52;21.70;63.40
67598;DHT22;62026;39.230;9.122;2022-10-31T17:25:26;21.70;63.50
67598;DHT22;62026;39.230;9.122;2022-10-31T17:27:54;21.80;63.70
67598;DHT22;62026;39.230;9.122;2022-10-31T17:30:21;21.60;63.90
67598;DHT22;62026;39.230;9.122;2022-10-31T17:32:48;21.60;64.10
67598;DHT22;62026;39.230;9.122;2022-10-31T17:35:17;21.60;64.50
67598;DHT22;62026;39.230;9.122;2022-10-31T17:37:45;21.60;64.10
67598;DHT22;62026;39.230;9.122;2022-10-31T17:40:14;21.60;64.40
67598;DHT22;62026;39.230;9.122;2022-10-31T17:42:42;21.70;63.60
67598;DHT22;62026;39.230;9.122;2022-10-31T17:45:13;21.70;62.80
67598;DHT22;62026;39.230;9.122;2022-10-31T17:47:39;21.70;62.60
67598;DHT22;62026;39.230;9.122;2022-10-31T17:50:05;21.80;62.40
67598;DHT22;62026;39.230;9.122;2022-10-31T17:52:32;21.80;61.90
67598;DHT22;62026;39.230;9.122;2022-10-31T17:54:58;21.70;61.60
67598;DHT22;62026;39.230;9.122;2022-10-31T17:57:24;21.70;61.50
67598;DHT22;62026;39.230;9.122;2022-10-31T17:59:50;21.70;61.00
67598;DHT22;62026;39.230;9.122;2022-10-31T18:02:16;21.70;60.90
67598;DHT22;62026;39.230;9.122;2022-10-31T18:04:42;21.70;61.00
67598;DHT22;62026;39.230;9.122;2022-10-31T18:07:08;21.70;60.80
67598;DHT22;62026;39.230;9.122;2022-10-31T18:09:34;21.60;61.00
67598;DHT22;62026;39.230;9.122;2022-10-31T18:12:00;21.70;60.80
67598;DHT22;62026;39.230;9.122;2022-10-31T18:14:26;21.60;60.90
67598;DHT22;62026;39.230;9.122;2022-10-31T18:16:54;21.70;60.90
67598;DHT22;62026;39.230;9.122;2022-10-31T18:19:20;21.70;60.80
67598;DHT22;62026;39.230;9.122;2022-10-31T18:21:46;21.70;60.70
67598;DHT22;62026;39.230;9.122;2022-10-31T18:24:12;21.70;60.80
67598;DHT22;62026;39.230;9.122;2022-10-31T18:26:38;21.70;60.70
67598;DHT22;62026;39.230;9.122;2022-10-31T18:29:04;21.70;60.80
67598;DHT22;62026;39.230;9.122;2022-10-31T18:31:30;21.70;60.80
67598;DHT22;62026;39.230;9.122;2022-10-31T18:33:56;21.70;60.80
67598;DHT22;62026;39.230;9.122;2022-10-31T18:36:23;21.70;60.70
67598;DHT22;62026;39.230;9.122;2022-10-31T18:38:50;21.70;60.70
67598;DHT22;62026;39.230;9.122;2022-10-31T18:41:16;21.60;60.80
67598;DHT22;62026;39.230;9.122;2022-10-31T18:43:42;21.60;60.70
67598;DHT22;62026;39.230;9.122;2022-10-31T18:46:13;21.60;60.60
67598;DHT22;62026;39.230;9.122;2022-10-31T18:48:42;21.60;60.60
67598;DHT22;62026;39.230;9.122;2022-10-31T18:51:11;21.60;60.50
67598;DHT22;62026;39.230;9.122;2022-10-31T18:53:39;21.60;60.60